sensor_id;sensor_type;location;lat;lon;timestamp;pressure;altitude;pressure_sealevel;temperature;humidity
77019;BME280;66044;53.142;17.962;2023-02-15T00:01:45;102818.45;;;1.58;73.94
77019;BME280;66044;53.142;17.962;2023-02-15T00:04:17;102822.73;;;1.57;73.99
77019;BME280;66044;53.142;17.962;2023-02-15T00:06:44;102818.19;;;1.58;73.88
77019;BME280;66044;53.142;17.962;2023-02-15T00:09:11;102819.48;;;1.61;73.83
77019;BME280;66044;53.142;17.962;2023-02-15T00:11:39;102819.46;;;1.64;73.65
77019;BME280;66044;53.142;17.962;2023-02-15T00:14:09;102815.04;;;1.66;73.75
77019;BME280;66044;53.142;17.962;2023-02-15T00:16:37;102817.11;;;1.69;73.60
77019;BME280;66044;53.142;17.962;2023-02-15T00:19:04;102813.75;;;1.72;73.56
77019;BME280;66044;53.142;17.962;2023-02-15T00:21:32;102809.20;;;1.74;73.56
77019;BME280;66044;53.142;17.962;2023-02-15T00:24:01;102807.01;;;1.73;73.57
77019;BME280;66044;53.142;17.962;2023-02-15T00:26:28;102806.95;;;1.73;73.66
77019;BME280;66044;53.142;17.962;2023-02-15T00:28:56;102803.52;;;1.72;73.63
77019;BME280;66044;53.142;17.962;2023-02-15T00:31:25;102806.98;;;1.72;73.63
77019;BME280;66044;53.142;17.962;2023-02-15T00:33:51;102804.29;;;1.73;73.88
77019;BME280;66044;53.142;17.962;2023-02-15T00:36:18;102801.34;;;1.74;73.66
77019;BME280;66044;53.142;17.962;2023-02-15T00:38:44;102800.54;;;1.73;73.72
77019;BME280;66044;53.142;17.962;2023-02-15T00:41:11;102798.52;;;1.71;73.73
77019;BME280;66044;53.142;17.962;2023-02-15T00:43:37;102803.20;;;1.70;73.85
77019;BME280;66044;53.142;17.962;2023-02-15T00:46:05;102797.89;;;1.73;73.83
77019;BME280;66044;53.142;17.962;2023-02-15T00:48:31;102799.55;;;1.75;73.71
77019;BME280;66044;53.142;17.962;2023-02-15T00:50:59;102796.77;;;1.77;73.73
77019;BME280;66044;53.142;17.962;2023-02-15T00:53:26;102795.00;;;1.80;73.78
77019;BME280;66044;53.142;17.962;2023-02-15T00:55:53;102799.73;;;1.85;73.67
77019;BME280;66044;53.142;17.962;2023-02-15T00:58:20;102800.94;;;1.91;73.60
77019;BME280;66044;53.142;17.962;2023-02-15T01:00:47;102792.46;;;1.96;73.50
77019;BME280;66044;53.142;17.962;2023-02-15T01:03:15;102789.89;;;2.02;73.61
77019;BME280;66044;53.142;17.962;2023-02-15T01:05:42;102788.88;;;2.07;73.49
77019;BME280;66044;53.142;17.962;2023-02-15T01:08:09;102790.14;;;2.08;73.41
77019;BME280;66044;53.142;17.962;2023-02-15T01:10:36;102790.55;;;2.06;73.46
77019;BME280;66044;53.142;17.962;2023-02-15T01:13:03;102790.27;;;2.05;73.52
77019;BME280;66044;53.142;17.962;2023-02-15T01:15:29;102785.70;;;2.04;73.65
77019;BME280;66044;53.142;17.962;2023-02-15T01:17:56;102789.09;;;2.04;73.64
77019;BME280;66044;53.142;17.962;2023-02-15T01:20:26;102788.60;;;2.04;73.72
77019;BME280;66044;53.142;17.962;2023-02-15T01:22:53;102784.73;;;2.03;73.73
77019;BME280;66044;53.142;17.962;2023-02-15T01:25:22;102777.23;;;2.02;73.81
77019;BME280;66044;53.142;17.962;2023-02-15T01:27:49;102774.16;;;2.02;73.73
77019;BME280;66044;53.142;17.962;2023-02-15T01:30:16;102771.65;;;2.04;73.82
77019;BME280;66044;53.142;17.962;2023-02-15T01:32:42;102769.48;;;2.06;73.59
77019;BME280;66044;53.142;17.962;2023-02-15T01:35:10;102764.02;;;2.05;73.80
77019;BME280;66044;53.142;17.962;2023-02-15T01:37:37;102759.39;;;2.08;73.55
77019;BME280;66044;53.142;17.962;2023-02-15T01:40:06;102755.91;;;2.12;73.73
77019;BME280;66044;53.142;17.962;2023-02-15T01:42:33;102751.58;;;2.15;73.58
77019;BME280;66044;53.142;17.962;2023-02-15T01:45:14;102749.86;;;2.17;73.61
77019;BME280;66044;53.142;17.962;2023-02-15T01:50:38;102747.84;;;2.20;73.45
77019;BME280;66044;53.142;17.962;2023-02-15T01:53:24;102748.69;;;2.23;73.48
77019;BME280;66044;53.142;17.962;2023-02-15T01:56:08;102749.11;;;2.28;73.46
77019;BME280;66044;53.142;17.962;2023-02-15T01:58:36;102745.23;;;2.29;73.34
77019;BME280;66044;53.142;17.962;2023-02-15T02:01:04;102746.45;;;2.31;73.46
77019;BME280;66044;53.142;17.962;2023-02-15T02:03:44;102745.80;;;2.32;73.24
77019;BME280;66044;53.142;17.962;2023-02-15T02:06:15;102745.73;;;2.30;73.26
77019;BME280;66044;53.142;17.962;2023-02-15T02:08:42;102745.30;;;2.27;73.30
77019;BME280;66044;53.142;17.962;2023-02-15T02:11:14;102743.26;;;2.24;73.44
77019;BME280;66044;53.142;17.962;2023-02-15T02:13:42;102738.04;;;2.24;73.41
77019;BME280;66044;53.142;17.962;2023-02-15T02:27:47;102737.17;;;2.18;73.23
77019;BME280;66044;53.142;17.962;2023-02-15T02:30:31;102736.60;;;2.19;73.20
77019;BME280;66044;53.142;17.962;2023-02-15T02:42:01;102734.13;;;2.13;73.33
77019;BME280;66044;53.142;17.962;2023-02-15T02:44:48;102730.59;;;2.10;73.40
77019;BME280;66044;53.142;17.962;2023-02-15T02:47:21;102724.89;;;2.07;73.30
77019;BME280;66044;53.142;17.962;2023-02-15T02:49:59;102729.70;;;2.03;73.44
77019;BME280;66044;53.142;17.962;2023-02-15T02:52:42;102726.81;;;1.97;73.44
77019;BME280;66044;53.142;17.962;2023-02-15T02:55:14;102722.30;;;1.90;73.53
77019;BME280;66044;53.142;17.962;2023-02-15T02:57:48;102718.77;;;1.84;73.50
77019;BME280;66044;53.142;17.962;2023-02-15T03:00:21;102718.06;;;1.78;73.58
77019;BME280;66044;53.142;17.962;2023-02-15T03:02:51;102716.02;;;1.73;73.65
77019;BME280;66044;53.142;17.962;2023-02-15T03:05:23;102716.71;;;1.66;73.64
77019;BME280;66044;53.142;17.962;2023-02-15T03:07:52;102715.81;;;1.63;73.83
77019;BME280;66044;53.142;17.962;2023-02-15T03:10:22;102711.39;;;1.59;73.88
77019;BME280;66044;53.142;17.962;2023-02-15T03:12:50;102710.40;;;1.58;73.96
77019;BME280;66044;53.142;17.962;2023-02-15T03:15:28;102713.27;;;1.58;73.97
77019;BME280;66044;53.142;17.962;2023-02-15T03:18:18;102712.39;;;1.61;73.84
77019;BME280;66044;53.142;17.962;2023-02-15T03:20:46;102713.09;;;1.64;73.84
77019;BME280;66044;53.142;17.962;2023-02-15T03:23:19;102708.89;;;1.63;73.94
77019;BME280;66044;53.142;17.962;2023-02-15T03:25:50;102711.50;;;1.63;73.83
77019;BME280;66044;53.142;17.962;2023-02-15T03:28:22;102710.47;;;1.64;74.02
77019;BME280;66044;53.142;17.962;2023-02-15T03:30:53;102710.49;;;1.66;74.12
77019;BME280;66044;53.142;17.962;2023-02-15T03:33:23;102706.48;;;1.63;73.94
77019;BME280;66044;53.142;17.962;2023-02-15T03:36:13;102704.58;;;1.60;73.96
77019;BME280;66044;53.142;17.962;2023-02-15T03:41:58;102704.91;;;1.60;74.09
77019;BME280;66044;53.142;17.962;2023-02-15T03:44:30;102703.48;;;1.60;74.11
77019;BME280;66044;53.142;17.962;2023-02-15T03:47:16;102699.29;;;1.59;74.08
77019;BME280;66044;53.142;17.962;2023-02-15T03:50:15;102702.02;;;1.57;74.23
77019;BME280;66044;53.142;17.962;2023-02-15T03:52:59;102698.84;;;1.57;74.14
77019;BME280;66044;53.142;17.962;2023-02-15T03:55:28;102688.56;;;1.57;74.21
77019;BME280;66044;53.142;17.962;2023-02-15T03:57:55;102692.52;;;1.59;73.95
77019;BME280;66044;53.142;17.962;2023-02-15T04:00:44;102690.47;;;1.57;74.19
77019;BME280;66044;53.142;17.962;2023-02-15T04:03:39;102691.67;;;1.59;74.07
77019;BME280;66044;53.142;17.962;2023-02-15T04:06:06;102693.45;;;1.58;74.18
77019;BME280;66044;53.142;17.962;2023-02-15T04:08:32;102691.27;;;1.58;74.18
77019;BME280;66044;53.142;17.962;2023-02-15T04:11:17;102693.33;;;1.61;74.22
77019;BME280;66044;53.142;17.962;2023-02-15T04:13:44;102693.34;;;1.66;74.11
77019;BME280;66044;53.142;17.962;2023-02-15T04:16:10;102696.02;;;1.67;74.13
77019;BME280;66044;53.142;17.962;2023-02-15T04:18:42;102692.34;;;1.68;74.16
77019;BME280;66044;53.142;17.962;2023-02-15T04:21:30;102692.40;;;1.66;74.19
77019;BME280;66044;53.142;17.962;2023-02-15T04:24:16;102693.22;;;1.65;74.21
77019;BME280;66044;53.142;17.962;2023-02-15T04:27:02;102695.89;;;1.67;74.10
77019;BME280;66044;53.142;17.962;2023-02-15T04:29:29;102688.37;;;1.71;74.09
77019;BME280;66044;53.142;17.962;2023-02-15T04:31:57;102690.24;;;1.75;74.24
77019;BME280;66044;53.142;17.962;2023-02-15T04:34:24;102689.52;;;1.79;74.09
77019;BME280;66044;53.142;17.962;2023-02-15T04:36:50;102690.07;;;1.81;74.04
77019;BME280;66044;53.142;17.962;2023-02-15T04:39:18;102688.34;;;1.83;74.03
77019;BME280;66044;53.142;17.962;2023-02-15T04:41:44;102688.66;;;1.85;73.88
77019;BME280;66044;53.142;17.962;2023-02-15T04:44:11;102685.14;;;1.86;74.00
77019;BME280;66044;53.142;17.962;2023-02-15T04:46:37;102687.45;;;1.87;73.92
77019;BME280;66044;53.142;17.962;2023-02-15T04:49:04;102682.94;;;1.85;73.94
77019;BME280;66044;53.142;17.962;2023-02-15T04:51:30;102677.73;;;1.85;73.91
77019;BME280;66044;53.142;17.962;2023-02-15T04:53:57;102672.77;;;1.83;74.04
77019;BME280;66044;53.142;17.962;2023-02-15T04:56:23;102674.39;;;1.84;74.07
77019;BME280;66044;53.142;17.962;2023-02-15T04:58:50;102673.66;;;1.83;73.94
77019;BME280;66044;53.142;17.962;2023-02-15T05:01:17;102675.41;;;1.85;73.97
77019;BME280;66044;53.142;17.962;2023-02-15T05:03:43;102676.55;;;1.85;74.05
77019;BME280;66044;53.142;17.962;2023-02-15T05:06:10;102674.20;;;1.87;73.91
77019;BME280;66044;53.142;17.962;2023-02-15T05:08:36;102672.95;;;1.88;73.86
77019;BME280;66044;53.142;17.962;2023-02-15T05:11:02;102680.41;;;1.87;73.96
77019;BME280;66044;53.142;17.962;2023-02-15T05:13:29;102676.79;;;1.89;73.98
77019;BME280;66044;53.142;17.962;2023-02-15T05:15:55;102673.63;;;1.91;73.95
77019;BME280;66044;53.142;17.962;2023-02-15T05:18:22;102673.74;;;1.94;73.70
77019;BME280;66044;53.142;17.962;2023-02-15T05:20:48;102672.84;;;1.96;73.76
77019;BME280;66044;53.142;17.962;2023-02-15T05:23:15;102673.73;;;1.96;73.84
77019;BME280;66044;53.142;17.962;2023-02-15T05:25:46;102673.42;;;1.95;73.69
77019;BME280;66044;53.142;17.962;2023-02-15T05:28:32;102675.90;;;1.96;73.77
77019;BME280;66044;53.142;17.962;2023-02-15T05:31:04;102675.48;;;1.98;73.73
77019;BME280;66044;53.142;17.962;2023-02-15T05:33:31;102675.84;;;1.99;73.78
77019;BME280;66044;53.142;17.962;2023-02-15T05:35:58;102675.95;;;2.00;73.82
77019;BME280;66044;53.142;17.962;2023-02-15T05:38:24;102678.11;;;2.01;73.74
77019;BME280;66044;53.142;17.962;2023-02-15T05:40:51;102678.95;;;2.02;73.63
77019;BME280;66044;53.142;17.962;2023-02-15T05:43:18;102674.48;;;2.05;73.62
77019;BME280;66044;53.142;17.962;2023-02-15T05:45:46;102669.31;;;2.09;73.54
77019;BME280;66044;53.142;17.962;2023-02-15T05:48:13;102668.47;;;2.11;73.51
77019;BME280;66044;53.142;17.962;2023-02-15T05:50:40;102667.67;;;2.11;73.39
77019;BME280;66044;53.142;17.962;2023-02-15T05:53:07;102669.27;;;2.12;73.38
77019;BME280;66044;53.142;17.962;2023-02-15T05:55:33;102665.96;;;2.11;73.60
77019;BME280;66044;53.142;17.962;2023-02-15T05:58:00;102666.66;;;2.11;73.53
77019;BME280;66044;53.142;17.962;2023-02-15T06:00:26;102665.32;;;2.11;73.36
77019;BME280;66044;53.142;17.962;2023-02-15T06:02:53;102670.86;;;2.09;73.30
77019;BME280;66044;53.142;17.962;2023-02-15T06:05:19;102666.62;;;2.09;73.49
77019;BME280;66044;53.142;17.962;2023-02-15T06:07:46;102673.00;;;2.10;73.47
77019;BME280;66044;53.142;17.962;2023-02-15T06:10:12;102665.74;;;2.10;73.43
77019;BME280;66044;53.142;17.962;2023-02-15T06:12:38;102666.29;;;2.11;73.53
77019;BME280;66044;53.142;17.962;2023-02-15T06:15:05;102669.75;;;2.13;73.47
77019;BME280;66044;53.142;17.962;2023-02-15T06:17:32;102667.20;;;2.15;73.43
77019;BME280;66044;53.142;17.962;2023-02-15T06:19:58;102665.95;;;2.17;73.29
77019;BME280;66044;53.142;17.962;2023-02-15T06:22:25;102663.73;;;2.19;73.22
77019;BME280;66044;53.142;17.962;2023-02-15T06:24:51;102667.41;;;2.22;73.16
77019;BME280;66044;53.142;17.962;2023-02-15T06:27:18;102663.48;;;2.22;73.38
77019;BME280;66044;53.142;17.962;2023-02-15T06:29:44;102663.89;;;2.23;73.37
77019;BME280;66044;53.142;17.962;2023-02-15T06:32:11;102660.48;;;2.22;73.27
77019;BME280;66044;53.142;17.962;2023-02-15T06:34:37;102662.73;;;2.25;73.42
77019;BME280;66044;53.142;17.962;2023-02-15T06:37:03;102656.69;;;2.29;73.42
77019;BME280;66044;53.142;17.962;2023-02-15T06:39:30;102661.86;;;2.33;73.37
77019;BME280;66044;53.142;17.962;2023-02-15T06:41:57;102663.29;;;2.37;73.39
77019;BME280;66044;53.142;17.962;2023-02-15T06:44:24;102659.90;;;2.41;73.39
77019;BME280;66044;53.142;17.962;2023-02-15T06:46:50;102659.00;;;2.45;73.36
77019;BME280;66044;53.142;17.962;2023-02-15T06:49:17;102657.73;;;2.46;73.32
77019;BME280;66044;53.142;17.962;2023-02-15T06:51:43;102655.14;;;2.43;73.42
77019;BME280;66044;53.142;17.962;2023-02-15T06:54:10;102656.20;;;2.47;73.47
77019;BME280;66044;53.142;17.962;2023-02-15T06:56:36;102658.16;;;2.50;73.23
77019;BME280;66044;53.142;17.962;2023-02-15T06:59:02;102654.41;;;2.53;73.25
77019;BME280;66044;53.142;17.962;2023-02-15T07:01:29;102656.70;;;2.55;73.41
77019;BME280;66044;53.142;17.962;2023-02-15T07:03:55;102653.07;;;2.58;73.30
77019;BME280;66044;53.142;17.962;2023-02-15T07:06:22;102650.52;;;2.61;73.35
77019;BME280;66044;53.142;17.962;2023-02-15T07:08:48;102645.27;;;2.62;73.20
77019;BME280;66044;53.142;17.962;2023-02-15T07:11:15;102644.30;;;2.65;73.29
77019;BME280;66044;53.142;17.962;2023-02-15T07:14:00;102642.57;;;2.69;73.37
77019;BME280;66044;53.142;17.962;2023-02-15T07:16:26;102638.37;;;2.76;73.16
77019;BME280;66044;53.142;17.962;2023-02-15T07:18:53;102635.70;;;2.83;73.10
77019;BME280;66044;53.142;17.962;2023-02-15T07:21:19;102633.08;;;2.86;72.95
77019;BME280;66044;53.142;17.962;2023-02-15T07:23:46;102632.86;;;2.90;72.94
77019;BME280;66044;53.142;17.962;2023-02-15T07:26:12;102630.12;;;2.91;72.86
77019;BME280;66044;53.142;17.962;2023-02-15T07:28:39;102632.70;;;2.90;72.90
77019;BME280;66044;53.142;17.962;2023-02-15T07:31:05;102633.68;;;2.89;72.95
77019;BME280;66044;53.142;17.962;2023-02-15T07:33:32;102634.88;;;2.92;73.04
77019;BME280;66044;53.142;17.962;2023-02-15T07:36:01;102638.52;;;2.97;72.91
77019;BME280;66044;53.142;17.962;2023-02-15T07:38:36;102636.30;;;3.01;72.75
77019;BME280;66044;53.142;17.962;2023-02-15T07:41:09;102633.25;;;3.07;72.78
77019;BME280;66044;53.142;17.962;2023-02-15T07:43:38;102630.73;;;3.19;72.54
77019;BME280;66044;53.142;17.962;2023-02-15T07:46:16;102630.67;;;3.29;72.43
77019;BME280;66044;53.142;17.962;2023-02-15T07:48:44;102631.34;;;3.46;72.35
77019;BME280;66044;53.142;17.962;2023-02-15T07:51:11;102628.79;;;3.67;72.24
77019;BME280;66044;53.142;17.962;2023-02-15T07:53:38;102628.86;;;3.90;71.82
77019;BME280;66044;53.142;17.962;2023-02-15T07:56:07;102626.02;;;4.14;71.78
77019;BME280;66044;53.142;17.962;2023-02-15T07:58:35;102622.32;;;4.39;71.29
77019;BME280;66044;53.142;17.962;2023-02-15T08:01:18;102623.00;;;4.66;70.84
77019;BME280;66044;53.142;17.962;2023-02-15T08:03:45;102614.70;;;4.92;70.70
77019;BME280;66044;53.142;17.962;2023-02-15T08:06:12;102615.59;;;5.13;70.29
77019;BME280;66044;53.142;17.962;2023-02-15T08:08:40;102610.80;;;5.32;69.81
77019;BME280;66044;53.142;17.962;2023-02-15T08:11:16;102601.73;;;5.50;69.44
77019;BME280;66044;53.142;17.962;2023-02-15T08:13:54;102598.33;;;5.68;68.93
77019;BME280;66044;53.142;17.962;2023-02-15T08:18:52;102591.73;;;5.98;68.32
77019;BME280;66044;53.142;17.962;2023-02-15T08:21:20;102587.89;;;6.06;67.93
77019;BME280;66044;53.142;17.962;2023-02-15T08:23:46;102584.75;;;6.16;67.71
77019;BME280;66044;53.142;17.962;2023-02-15T08:26:13;102580.81;;;6.13;67.04
77019;BME280;66044;53.142;17.962;2023-02-15T08:28:41;102584.50;;;6.13;67.11
77019;BME280;66044;53.142;17.962;2023-02-15T08:31:09;102583.09;;;6.16;66.91
77019;BME280;66044;53.142;17.962;2023-02-15T08:33:37;102583.12;;;6.23;66.79
77019;BME280;66044;53.142;17.962;2023-02-15T08:36:09;102585.83;;;6.34;66.50
77019;BME280;66044;53.142;17.962;2023-02-15T08:38:36;102580.59;;;6.39;66.30
77019;BME280;66044;53.142;17.962;2023-02-15T08:41:20;102580.92;;;6.36;66.20
77019;BME280;66044;53.142;17.962;2023-02-15T08:43:49;102577.96;;;6.33;66.16
77019;BME280;66044;53.142;17.962;2023-02-15T08:46:18;102576.17;;;6.31;65.86
77019;BME280;66044;53.142;17.962;2023-02-15T08:48:44;102572.52;;;6.20;65.73
77019;BME280;66044;53.142;17.962;2023-02-15T08:51:16;102571.11;;;6.13;66.08
77019;BME280;66044;53.142;17.962;2023-02-15T08:53:45;102565.55;;;6.05;65.99
77019;BME280;66044;53.142;17.962;2023-02-15T08:56:12;102563.90;;;5.92;65.93
77019;BME280;66044;53.142;17.962;2023-02-15T08:58:38;102558.86;;;5.86;66.16
77019;BME280;66044;53.142;17.962;2023-02-15T09:01:18;102554.73;;;5.79;66.21
77019;BME280;66044;53.142;17.962;2023-02-15T09:03:51;102554.12;;;5.75;66.25
77019;BME280;66044;53.142;17.962;2023-02-15T09:06:22;102549.02;;;5.65;66.44
77019;BME280;66044;53.142;17.962;2023-02-15T09:08:49;102551.23;;;5.59;66.47
77019;BME280;66044;53.142;17.962;2023-02-15T09:11:18;102548.88;;;5.51;66.51
77019;BME280;66044;53.142;17.962;2023-02-15T09:13:53;102547.48;;;5.46;66.66
77019;BME280;66044;53.142;17.962;2023-02-15T09:16:22;102543.27;;;5.39;66.79
77019;BME280;66044;53.142;17.962;2023-02-15T09:18:50;102539.16;;;5.32;67.04
77019;BME280;66044;53.142;17.962;2023-02-15T09:21:19;102542.66;;;5.28;67.06
77019;BME280;66044;53.142;17.962;2023-02-15T09:23:48;102542.09;;;5.18;66.84
77019;BME280;66044;53.142;17.962;2023-02-15T09:26:19;102545.66;;;5.10;67.11
77019;BME280;66044;53.142;17.962;2023-02-15T09:28:47;102540.49;;;5.04;67.17
77019;BME280;66044;53.142;17.962;2023-02-15T09:31:20;102543.45;;;4.99;67.13
77019;BME280;66044;53.142;17.962;2023-02-15T09:33:48;102544.69;;;4.97;67.21
77019;BME280;66044;53.142;17.962;2023-02-15T09:36:23;102546.12;;;4.96;67.15
77019;BME280;66044;53.142;17.962;2023-02-15T09:39:15;102543.60;;;4.95;67.26
77019;BME280;66044;53.142;17.962;2023-02-15T09:50:06;102524.04;;;5.03;66.96
77019;BME280;66044;53.142;17.962;2023-02-15T09:52:48;102526.02;;;5.01;66.91
77019;BME280;66044;53.142;17.962;2023-02-15T09:55:48;102522.99;;;5.05;66.91
77019;BME280;66044;53.142;17.962;2023-02-15T10:03:46;102511.29;;;5.10;66.24
77019;BME280;66044;53.142;17.962;2023-02-15T10:06:31;102511.54;;;5.05;66.12
77019;BME280;66044;53.142;17.962;2023-02-15T10:15:27;102508.69;;;4.96;65.48
77019;BME280;66044;53.142;17.962;2023-02-15T10:20:52;102504.42;;;4.83;65.55
77019;BME280;66044;53.142;17.962;2023-02-15T10:29:11;102495.88;;;4.81;65.77
77019;BME280;66044;53.142;17.962;2023-02-15T10:31:49;102498.01;;;4.85;65.79
77019;BME280;66044;53.142;17.962;2023-02-15T10:36:58;102496.50;;;4.84;65.63
77019;BME280;66044;53.142;17.962;2023-02-15T10:47:48;102483.57;;;4.82;65.71
77019;BME280;66044;53.142;17.962;2023-02-15T10:50:30;102481.29;;;4.80;65.88
77019;BME280;66044;53.142;17.962;2023-02-15T10:56:16;102483.48;;;4.82;65.67
77019;BME280;66044;53.142;17.962;2023-02-15T11:01:40;102484.61;;;4.63;65.68
77019;BME280;66044;53.142;17.962;2023-02-15T11:04:41;102480.86;;;4.59;65.84
77019;BME280;66044;53.142;17.962;2023-02-15T11:07:33;102470.95;;;4.60;65.69
77019;BME280;66044;53.142;17.962;2023-02-15T11:12:50;102461.17;;;4.78;65.70
77019;BME280;66044;53.142;17.962;2023-02-15T11:15:27;102458.89;;;4.83;65.39
77019;BME280;66044;53.142;17.962;2023-02-15T11:17:59;102459.60;;;4.86;65.67
77019;BME280;66044;53.142;17.962;2023-02-15T11:20:35;102457.92;;;4.85;65.52
77019;BME280;66044;53.142;17.962;2023-02-15T11:23:12;102452.71;;;4.83;65.73
77019;BME280;66044;53.142;17.962;2023-02-15T11:25:43;102451.30;;;4.81;65.62
77019;BME280;66044;53.142;17.962;2023-02-15T11:28:23;102444.32;;;4.80;65.46
77019;BME280;66044;53.142;17.962;2023-02-15T11:30:54;102438.46;;;4.74;65.53
77019;BME280;66044;53.142;17.962;2023-02-15T11:33:29;102434.05;;;4.71;65.32
77019;BME280;66044;53.142;17.962;2023-02-15T11:36:07;102432.41;;;4.71;65.48
77019;BME280;66044;53.142;17.962;2023-02-15T11:38:36;102434.15;;;4.80;65.71
77019;BME280;66044;53.142;17.962;2023-02-15T11:41:06;102427.73;;;4.92;65.64
77019;BME280;66044;53.142;17.962;2023-02-15T11:46:21;102416.97;;;5.23;65.25
77019;BME280;66044;53.142;17.962;2023-02-15T11:48:48;102421.34;;;5.31;64.99
77019;BME280;66044;53.142;17.962;2023-02-15T11:51:18;102418.53;;;5.32;64.81
77019;BME280;66044;53.142;17.962;2023-02-15T11:53:47;102420.52;;;5.29;64.62
77019;BME280;66044;53.142;17.962;2023-02-15T11:56:19;102419.70;;;5.24;64.90
77019;BME280;66044;53.142;17.962;2023-02-15T12:01:36;102425.33;;;5.18;65.02
77019;BME280;66044;53.142;17.962;2023-02-15T12:04:08;102415.77;;;5.25;64.93
77019;BME280;66044;53.142;17.962;2023-02-15T12:06:42;102410.52;;;5.34;65.03
77019;BME280;66044;53.142;17.962;2023-02-15T12:11:42;102408.27;;;5.48;64.90
77019;BME280;66044;53.142;17.962;2023-02-15T12:14:10;102408.65;;;5.52;64.86
77019;BME280;66044;53.142;17.962;2023-02-15T12:16:51;102406.55;;;5.54;64.42
77019;BME280;66044;53.142;17.962;2023-02-15T12:19:45;102403.85;;;5.52;64.47
77019;BME280;66044;53.142;17.962;2023-02-15T12:22:23;102397.83;;;5.48;64.33
77019;BME280;66044;53.142;17.962;2023-02-15T12:24:52;102396.95;;;5.45;64.38
77019;BME280;66044;53.142;17.962;2023-02-15T12:27:26;102387.12;;;5.48;64.46
77019;BME280;66044;53.142;17.962;2023-02-15T12:29:59;102384.70;;;5.56;64.35
77019;BME280;66044;53.142;17.962;2023-02-15T12:32:30;102382.95;;;5.60;64.14
77019;BME280;66044;53.142;17.962;2023-02-15T12:35:12;102383.46;;;5.54;64.07
77019;BME280;66044;53.142;17.962;2023-02-15T12:37:54;102379.48;;;5.51;64.28
77019;BME280;66044;53.142;17.962;2023-02-15T12:42:54;102372.09;;;5.62;64.34
77019;BME280;66044;53.142;17.962;2023-02-15T12:45:32;102373.73;;;5.71;64.43
77019;BME280;66044;53.142;17.962;2023-02-15T12:50:44;102361.55;;;5.78;64.13
77019;BME280;66044;53.142;17.962;2023-02-15T12:53:17;102358.59;;;5.76;64.28
77019;BME280;66044;53.142;17.962;2023-02-15T12:55:59;102358.79;;;5.75;64.05
77019;BME280;66044;53.142;17.962;2023-02-15T12:58:29;102353.67;;;5.69;64.11
77019;BME280;66044;53.142;17.962;2023-02-15T13:03:35;102349.67;;;5.50;64.07
77019;BME280;66044;53.142;17.962;2023-02-15T13:06:04;102348.21;;;5.43;64.14
77019;BME280;66044;53.142;17.962;2023-02-15T13:08:39;102343.88;;;5.41;64.27
77019;BME280;66044;53.142;17.962;2023-02-15T13:11:11;102340.14;;;5.36;64.09
77019;BME280;66044;53.142;17.962;2023-02-15T13:13:50;102336.78;;;5.36;64.32
77019;BME280;66044;53.142;17.962;2023-02-15T13:16:24;102333.89;;;5.39;64.35
77019;BME280;66044;53.142;17.962;2023-02-15T13:18:55;102328.99;;;5.45;64.44
77019;BME280;66044;53.142;17.962;2023-02-15T13:21:25;102326.86;;;5.55;64.39
77019;BME280;66044;53.142;17.962;2023-02-15T13:24:00;102330.78;;;5.63;64.22
77019;BME280;66044;53.142;17.962;2023-02-15T13:26:30;102332.83;;;5.71;64.10
77019;BME280;66044;53.142;17.962;2023-02-15T13:29:04;102332.70;;;5.78;63.94
77019;BME280;66044;53.142;17.962;2023-02-15T13:31:32;102328.73;;;5.82;63.79
77019;BME280;66044;53.142;17.962;2023-02-15T13:34:25;102326.78;;;5.73;63.95
77019;BME280;66044;53.142;17.962;2023-02-15T13:39:40;102323.20;;;5.55;64.02
77019;BME280;66044;53.142;17.962;2023-02-15T13:52:52;102309.91;;;5.39;64.38
77019;BME280;66044;53.142;17.962;2023-02-15T13:55:31;102307.84;;;5.31;64.48
77019;BME280;66044;53.142;17.962;2023-02-15T14:00:47;102304.83;;;5.00;64.93
77019;BME280;66044;53.142;17.962;2023-02-15T14:09:30;102296.38;;;4.88;65.48
77019;BME280;66044;53.142;17.962;2023-02-15T14:14:52;102295.36;;;4.84;65.63
77019;BME280;66044;53.142;17.962;2023-02-15T14:17:41;102295.85;;;4.77;65.72
77019;BME280;66044;53.142;17.962;2023-02-15T14:25:49;102299.04;;;4.53;66.08
77019;BME280;66044;53.142;17.962;2023-02-15T14:28:25;102294.73;;;4.47;66.17
77019;BME280;66044;53.142;17.962;2023-02-15T14:30:54;102292.27;;;4.41;66.25
77019;BME280;66044;53.142;17.962;2023-02-15T14:33:37;102283.82;;;4.38;66.32
77019;BME280;66044;53.142;17.962;2023-02-15T14:36:06;102284.97;;;4.38;66.66
77019;BME280;66044;53.142;17.962;2023-02-15T14:38:48;102287.71;;;4.35;66.75
77019;BME280;66044;53.142;17.962;2023-02-15T14:41:24;102285.46;;;4.35;66.94
77019;BME280;66044;53.142;17.962;2023-02-15T14:49:13;102275.89;;;4.23;67.11
77019;BME280;66044;53.142;17.962;2023-02-15T14:56:45;102260.59;;;4.13;67.48
77019;BME280;66044;53.142;17.962;2023-02-15T15:01:39;102259.95;;;4.08;67.51
77019;BME280;66044;53.142;17.962;2023-02-15T15:04:13;102260.16;;;4.08;67.46
77019;BME280;66044;53.142;17.962;2023-02-15T15:06:59;102256.76;;;4.06;67.73
77019;BME280;66044;53.142;17.962;2023-02-15T15:09:28;102254.13;;;4.05;67.91
77019;BME280;66044;53.142;17.962;2023-02-15T15:12:13;102247.70;;;4.05;67.69
77019;BME280;66044;53.142;17.962;2023-02-15T15:14:42;102251.45;;;4.04;67.70
77019;BME280;66044;53.142;17.962;2023-02-15T15:17:10;102244.45;;;4.02;67.84
77019;BME280;66044;53.142;17.962;2023-02-15T15:22:24;102238.40;;;3.93;68.09
77019;BME280;66044;53.142;17.962;2023-02-15T15:24:54;102240.39;;;3.89;68.39
77019;BME280;66044;53.142;17.962;2023-02-15T15:27:48;102238.02;;;3.88;68.32
77019;BME280;66044;53.142;17.962;2023-02-15T15:35:52;102232.10;;;3.91;68.79
77019;BME280;66044;53.142;17.962;2023-02-15T15:49:43;102222.98;;;3.72;69.15